sensor_id;sensor_type;location;lat;lon;timestamp;temperature;humidity
4052;DHT22;2040;50.924;11.604;2023-06-10T00:01:37;16.80;99.90
4052;DHT22;2040;50.924;11.604;2023-06-10T00:04:03;16.70;99.90
4052;DHT22;2040;50.924;11.604;2023-06-10T00:06:29;16.70;99.90
4052;DHT22;2040;50.924;11.604;2023-06-10T00:09:04;16.60;99.90
4052;DHT22;2040;50.924;11.604;2023-06-10T00:11:31;16.60;99.90
4052;DHT22;2040;50.924;11.604;2023-06-10T00:13:57;16.60;99.90
4052;DHT22;2040;50.924;11.604;2023-06-10T00:16:23;16.60;99.90
4052;DHT22;2040;50.924;11.604;2023-06-10T00:18:49;16.60;99.90
4052;DHT22;2040;50.924;11.604;2023-06-10T00:21:16;16.50;99.90
4052;DHT22;2040;50.924;11.604;2023-06-10T00:23:42;16.40;99.90
4052;DHT22;2040;50.924;11.604;2023-06-10T00:26:08;16.30;99.90
4052;DHT22;2040;50.924;11.604;2023-06-10T00:28:34;16.20;99.90
4052;DHT22;2040;50.924;11.604;2023-06-10T00:31:00;16.20;99.90
4052;DHT22;2040;50.924;11.604;2023-06-10T00:33:25;16.10;99.90
4052;DHT22;2040;50.924;11.604;2023-06-10T00:35:51;16.00;99.90
4052;DHT22;2040;50.924;11.604;2023-06-10T00:38:17;16.00;99.90
4052;DHT22;2040;50.924;11.604;2023-06-10T00:40:43;15.90;99.90
4052;DHT22;2040;50.924;11.604;2023-06-10T00:43:09;15.90;99.90
4052;DHT22;2040;50.924;11.604;2023-06-10T00:45:34;15.90;99.90
4052;DHT22;2040;50.924;11.604;2023-06-10T00:48:01;15.80;99.90
4052;DHT22;2040;50.924;11.604;2023-06-10T00:50:27;15.80;99.90
4052;DHT22;2040;50.924;11.604;2023-06-10T00:52:54;15.80;99.90
4052;DHT22;2040;50.924;11.604;2023-06-10T00:55:20;15.90;99.90
4052;DHT22;2040;50.924;11.604;2023-06-10T00:57:46;15.80;99.90
4052;DHT22;2040;50.924;11.604;2023-06-10T01:00:14;15.80;99.90
4052;DHT22;2040;50.924;11.604;2023-06-10T01:02:40;15.70;99.90
4052;DHT22;2040;50.924;11.604;2023-06-10T01:05:06;15.70;99.90
4052;DHT22;2040;50.924;11.604;2023-06-10T01:07:46;15.70;99.90
4052;DHT22;2040;50.924;11.604;2023-06-10T01:10:38;15.70;99.90
4052;DHT22;2040;50.924;11.604;2023-06-10T01:13:09;15.70;99.90
4052;DHT22;2040;50.924;11.604;2023-06-10T01:15:37;15.60;99.90
4052;DHT22;2040;50.924;11.604;2023-06-10T01:18:08;15.60;99.90
4052;DHT22;2040;50.924;11.604;2023-06-10T01:20:36;15.50;99.90
4052;DHT22;2040;50.924;11.604;2023-06-10T01:23:06;15.50;99.90
4052;DHT22;2040;50.924;11.604;2023-06-10T01:25:32;15.40;99.90
4052;DHT22;2040;50.924;11.604;2023-06-10T01:28:12;15.30;99.90
4052;DHT22;2040;50.924;11.604;2023-06-10T01:33:22;15.30;99.90
4052;DHT22;2040;50.924;11.604;2023-06-10T01:35:50;15.40;99.90
4052;DHT22;2040;50.924;11.604;2023-06-10T01:38:17;15.40;99.90
4052;DHT22;2040;50.924;11.604;2023-06-10T01:40:45;15.30;99.90
4052;DHT22;2040;50.924;11.604;2023-06-10T01:43:11;15.30;99.90
4052;DHT22;2040;50.924;11.604;2023-06-10T01:45:37;15.40;99.90
4052;DHT22;2040;50.924;11.604;2023-06-10T01:48:03;15.40;99.90
4052;DHT22;2040;50.924;11.604;2023-06-10T01:50:28;15.40;99.90
4052;DHT22;2040;50.924;11.604;2023-06-10T01:52:54;15.50;99.90
4052;DHT22;2040;50.924;11.604;2023-06-10T01:55:19;15.50;99.90
4052;DHT22;2040;50.924;11.604;2023-06-10T01:57:45;15.60;99.90
4052;DHT22;2040;50.924;11.604;2023-06-10T02:00:11;15.60;99.90
4052;DHT22;2040;50.924;11.604;2023-06-10T02:02:37;15.60;99.90
4052;DHT22;2040;50.924;11.604;2023-06-10T02:05:02;15.50;99.90
4052;DHT22;2040;50.924;11.604;2023-06-10T02:07:28;15.50;99.90
4052;DHT22;2040;50.924;11.604;2023-06-10T02:09:54;15.40;99.90
4052;DHT22;2040;50.924;11.604;2023-06-10T02:12:20;15.30;99.90
4052;DHT22;2040;50.924;11.604;2023-06-10T02:14:45;15.20;99.90
4052;DHT22;2040;50.924;11.604;2023-06-10T02:17:11;15.00;99.90
4052;DHT22;2040;50.924;11.604;2023-06-10T02:19:38;15.10;99.90
4052;DHT22;2040;50.924;11.604;2023-06-10T02:22:08;15.00;99.90
4052;DHT22;2040;50.924;11.604;2023-06-10T02:24:33;14.90;99.90
4052;DHT22;2040;50.924;11.604;2023-06-10T02:26:59;14.80;99.90
4052;DHT22;2040;50.924;11.604;2023-06-10T02:29:25;14.80;99.90
4052;DHT22;2040;50.924;11.604;2023-06-10T02:31:51;14.80;99.90
4052;DHT22;2040;50.924;11.604;2023-06-10T02:34:18;14.90;99.90
4052;DHT22;2040;50.924;11.604;2023-06-10T02:36:44;14.90;99.90
4052;DHT22;2040;50.924;11.604;2023-06-10T02:39:09;14.80;99.90
4052;DHT22;2040;50.924;11.604;2023-06-10T02:41:35;14.70;99.90
4052;DHT22;2040;50.924;11.604;2023-06-10T02:44:00;14.70;99.90
4052;DHT22;2040;50.924;11.604;2023-06-10T02:46:26;14.70;99.90
4052;DHT22;2040;50.924;11.604;2023-06-10T02:59:31;14.30;99.90
4052;DHT22;2040;50.924;11.604;2023-06-10T03:01:57;14.30;99.90
4052;DHT22;2040;50.924;11.604;2023-06-10T03:04:23;14.40;99.90
4052;DHT22;2040;50.924;11.604;2023-06-10T03:06:49;14.40;99.90
4052;DHT22;2040;50.924;11.604;2023-06-10T03:09:14;14.50;99.90
4052;DHT22;2040;50.924;11.604;2023-06-10T03:11:40;14.40;99.90
4052;DHT22;2040;50.924;11.604;2023-06-10T03:14:05;14.40;99.90
4052;DHT22;2040;50.924;11.604;2023-06-10T03:16:31;14.30;99.90
4052;DHT22;2040;50.924;11.604;2023-06-10T03:18:56;14.30;99.90
4052;DHT22;2040;50.924;11.604;2023-06-10T03:21:22;14.20;99.90
4052;DHT22;2040;50.924;11.604;2023-06-10T03:23:48;14.20;99.90
4052;DHT22;2040;50.924;11.604;2023-06-10T03:26:13;14.10;99.90
4052;DHT22;2040;50.924;11.604;2023-06-10T03:28:40;14.00;99.90
4052;DHT22;2040;50.924;11.604;2023-06-10T03:31:06;14.00;99.90
4052;DHT22;2040;50.924;11.604;2023-06-10T03:33:32;14.00;99.90
4052;DHT22;2040;50.924;11.604;2023-06-10T03:35:58;14.00;99.90
4052;DHT22;2040;50.924;11.604;2023-06-10T03:38:24;14.00;99.90
4052;DHT22;2040;50.924;11.604;2023-06-10T03:40:49;14.10;99.90
4052;DHT22;2040;50.924;11.604;2023-06-10T03:43:15;14.20;99.90
4052;DHT22;2040;50.924;11.604;2023-06-10T03:45:41;14.20;99.90
4052;DHT22;2040;50.924;11.604;2023-06-10T03:48:07;14.30;99.90
4052;DHT22;2040;50.924;11.604;2023-06-10T03:50:33;14.20;99.90
4052;DHT22;2040;50.924;11.604;2023-06-10T03:52:59;14.20;99.90
4052;DHT22;2040;50.924;11.604;2023-06-10T03:55:25;14.20;99.90
4052;DHT22;2040;50.924;11.604;2023-06-10T03:57:51;14.10;99.90
4052;DHT22;2040;50.924;11.604;2023-06-10T04:00:17;14.10;99.90
4052;DHT22;2040;50.924;11.604;2023-06-10T04:02:43;14.10;99.90
4052;DHT22;2040;50.924;11.604;2023-06-10T04:05:13;14.20;99.90
4052;DHT22;2040;50.924;11.604;2023-06-10T04:07:39;14.20;99.90
4052;DHT22;2040;50.924;11.604;2023-06-10T04:10:09;14.20;99.90
4052;DHT22;2040;50.924;11.604;2023-06-10T04:12:36;14.20;99.90
4052;DHT22;2040;50.924;11.604;2023-06-10T04:15:02;14.30;99.90
4052;DHT22;2040;50.924;11.604;2023-06-10T04:17:28;14.30;99.90
4052;DHT22;2040;50.924;11.604;2023-06-10T04:19:54;14.30;99.90
4052;DHT22;2040;50.924;11.604;2023-06-10T04:22:20;14.20;99.90
4052;DHT22;2040;50.924;11.604;2023-06-10T04:24:45;14.20;99.90
4052;DHT22;2040;50.924;11.604;2023-06-10T04:27:11;14.20;99.90
4052;DHT22;2040;50.924;11.604;2023-06-10T04:29:36;14.20;99.90
4052;DHT22;2040;50.924;11.604;2023-06-10T04:32:02;14.20;99.90
4052;DHT22;2040;50.924;11.604;2023-06-10T04:34:28;14.20;99.90
4052;DHT22;2040;50.924;11.604;2023-06-10T04:36:54;14.20;99.90
4052;DHT22;2040;50.924;11.604;2023-06-10T04:39:19;14.20;99.90
4052;DHT22;2040;50.924;11.604;2023-06-10T04:41:45;14.20;99.90
4052;DHT22;2040;50.924;11.604;2023-06-10T04:44:12;14.30;99.90
4052;DHT22;2040;50.924;11.604;2023-06-10T04:46:38;14.30;99.90
4052;DHT22;2040;50.924;11.604;2023-06-10T04:49:03;14.30;99.90
4052;DHT22;2040;50.924;11.604;2023-06-10T04:51:30;14.30;99.90
4052;DHT22;2040;50.924;11.604;2023-06-10T04:53:55;14.40;99.90
4052;DHT22;2040;50.924;11.604;2023-06-10T04:56:21;14.40;99.90
4052;DHT22;2040;50.924;11.604;2023-06-10T04:58:47;14.40;99.90
4052;DHT22;2040;50.924;11.604;2023-06-10T05:01:13;14.40;99.90
4052;DHT22;2040;50.924;11.604;2023-06-10T05:03:38;14.40;99.90
4052;DHT22;2040;50.924;11.604;2023-06-10T05:06:04;14.40;99.90
4052;DHT22;2040;50.924;11.604;2023-06-10T05:08:30;14.40;99.90
4052;DHT22;2040;50.924;11.604;2023-06-10T05:10:55;14.50;99.90
4052;DHT22;2040;50.924;11.604;2023-06-10T05:13:21;14.50;99.90
4052;DHT22;2040;50.924;11.604;2023-06-10T05:15:46;14.50;99.90
4052;DHT22;2040;50.924;11.604;2023-06-10T05:18:12;14.60;99.90
4052;DHT22;2040;50.924;11.604;2023-06-10T05:20:38;14.60;99.90
4052;DHT22;2040;50.924;11.604;2023-06-10T05:23:03;14.70;99.90
4052;DHT22;2040;50.924;11.604;2023-06-10T05:25:32;14.70;99.90
4052;DHT22;2040;50.924;11.604;2023-06-10T05:27:58;14.80;99.90
4052;DHT22;2040;50.924;11.604;2023-06-10T05:30:24;14.80;99.90
4052;DHT22;2040;50.924;11.604;2023-06-10T05:32:50;14.80;99.90
4052;DHT22;2040;50.924;11.604;2023-06-10T05:35:16;14.90;99.90
4052;DHT22;2040;50.924;11.604;2023-06-10T05:37:42;14.90;99.90
4052;DHT22;2040;50.924;11.604;2023-06-10T05:40:09;15.00;99.90
4052;DHT22;2040;50.924;11.604;2023-06-10T05:42:35;15.00;99.90
4052;DHT22;2040;50.924;11.604;2023-06-10T05:45:00;15.10;99.90
4052;DHT22;2040;50.924;11.604;2023-06-10T05:47:26;15.20;99.90
4052;DHT22;2040;50.924;11.604;2023-06-10T05:49:51;15.30;99.90
4052;DHT22;2040;50.924;11.604;2023-06-10T05:52:18;15.30;99.90
4052;DHT22;2040;50.924;11.604;2023-06-10T05:54:43;15.40;99.90
4052;DHT22;2040;50.924;11.604;2023-06-10T05:57:09;15.40;99.90
4052;DHT22;2040;50.924;11.604;2023-06-10T05:59:35;15.50;99.90
4052;DHT22;2040;50.924;11.604;2023-06-10T06:02:01;15.60;99.90
4052;DHT22;2040;50.924;11.604;2023-06-10T06:04:27;15.60;99.90
4052;DHT22;2040;50.924;11.604;2023-06-10T06:06:52;15.60;99.90
4052;DHT22;2040;50.924;11.604;2023-06-10T06:09:18;15.60;99.90
4052;DHT22;2040;50.924;11.604;2023-06-10T06:11:43;15.80;99.90
4052;DHT22;2040;50.924;11.604;2023-06-10T06:14:09;15.80;99.90
4052;DHT22;2040;50.924;11.604;2023-06-10T06:16:35;15.90;99.90
4052;DHT22;2040;50.924;11.604;2023-06-10T06:19:00;15.90;99.90
4052;DHT22;2040;50.924;11.604;2023-06-10T06:21:26;16.00;99.90
4052;DHT22;2040;50.924;11.604;2023-06-10T06:23:51;16.10;99.90
4052;DHT22;2040;50.924;11.604;2023-06-10T06:26:17;16.20;99.90
4052;DHT22;2040;50.924;11.604;2023-06-10T06:28:42;16.20;99.90
4052;DHT22;2040;50.924;11.604;2023-06-10T06:31:08;16.30;99.90
4052;DHT22;2040;50.924;11.604;2023-06-10T06:33:34;16.30;99.90
4052;DHT22;2040;50.924;11.604;2023-06-10T06:35:59;16.40;99.90
4052;DHT22;2040;50.924;11.604;2023-06-10T06:38:26;16.50;99.90
4052;DHT22;2040;50.924;11.604;2023-06-10T06:40:51;16.50;99.90
4052;DHT22;2040;50.924;11.604;2023-06-10T06:43:17;16.60;99.90
4052;DHT22;2040;50.924;11.604;2023-06-10T06:45:44;16.70;99.90
4052;DHT22;2040;50.924;11.604;2023-06-10T06:48:11;16.80;99.90
4052;DHT22;2040;50.924;11.604;2023-06-10T06:50:36;16.80;99.90
4052;DHT22;2040;50.924;11.604;2023-06-10T06:53:03;16.80;99.90
4052;DHT22;2040;50.924;11.604;2023-06-10T06:55:28;16.90;99.90
4052;DHT22;2040;50.924;11.604;2023-06-10T06:57:54;17.00;99.90
4052;DHT22;2040;50.924;11.604;2023-06-10T07:00:19;17.10;99.90
4052;DHT22;2040;50.924;11.604;2023-06-10T07:02:45;17.20;99.90
4052;DHT22;2040;50.924;11.604;2023-06-10T07:05:11;17.30;99.90
4052;DHT22;2040;50.924;11.604;2023-06-10T07:07:36;17.40;99.90
4052;DHT22;2040;50.924;11.604;2023-06-10T07:10:02;17.40;99.90
4052;DHT22;2040;50.924;11.604;2023-06-10T07:12:27;17.50;99.90
4052;DHT22;2040;50.924;11.604;2023-06-10T07:14:53;17.60;99.90
4052;DHT22;2040;50.924;11.604;2023-06-10T07:17:19;17.80;99.90
4052;DHT22;2040;50.924;11.604;2023-06-10T07:19:45;17.90;99.90
4052;DHT22;2040;50.924;11.604;2023-06-10T07:22:11;18.00;99.90
4052;DHT22;2040;50.924;11.604;2023-06-10T07:24:36;18.00;99.90
4052;DHT22;2040;50.924;11.604;2023-06-10T07:27:02;18.10;99.90
4052;DHT22;2040;50.924;11.604;2023-06-10T07:29:28;18.20;99.90
4052;DHT22;2040;50.924;11.604;2023-06-10T07:31:53;18.30;99.90
4052;DHT22;2040;50.924;11.604;2023-06-10T07:34:19;18.40;99.90
4052;DHT22;2040;50.924;11.604;2023-06-10T07:36:45;18.50;99.90
4052;DHT22;2040;50.924;11.604;2023-06-10T07:39:10;18.60;99.90
4052;DHT22;2040;50.924;11.604;2023-06-10T07:41:36;18.80;99.90
4052;DHT22;2040;50.924;11.604;2023-06-10T07:44:01;18.90;99.90
4052;DHT22;2040;50.924;11.604;2023-06-10T07:46:27;18.90;99.90
4052;DHT22;2040;50.924;11.604;2023-06-10T07:48:54;18.90;99.90
4052;DHT22;2040;50.924;11.604;2023-06-10T07:51:20;19.00;99.90
4052;DHT22;2040;50.924;11.604;2023-06-10T07:53:46;19.10;99.90
4052;DHT22;2040;50.924;11.604;2023-06-10T07:56:12;19.20;99.90
4052;DHT22;2040;50.924;11.604;2023-06-10T07:58:37;19.30;99.90
4052;DHT22;2040;50.924;11.604;2023-06-10T08:01:03;19.40;99.90
4052;DHT22;2040;50.924;11.604;2023-06-10T08:03:29;19.40;99.90
4052;DHT22;2040;50.924;11.604;2023-06-10T08:05:54;19.60;99.90
4052;DHT22;2040;50.924;11.604;2023-06-10T08:08:20;19.80;99.90
4052;DHT22;2040;50.924;11.604;2023-06-10T08:10:45;19.90;99.90
4052;DHT22;2040;50.924;11.604;2023-06-10T08:13:11;19.90;99.90
4052;DHT22;2040;50.924;11.604;2023-06-10T08:15:36;20.00;99.90
4052;DHT22;2040;50.924;11.604;2023-06-10T08:18:02;20.10;99.90
4052;DHT22;2040;50.924;11.604;2023-06-10T08:20:28;20.10;99.90
4052;DHT22;2040;50.924;11.604;2023-06-10T08:22:53;20.30;99.90
4052;DHT22;2040;50.924;11.604;2023-06-10T08:25:19;20.50;99.90
4052;DHT22;2040;50.924;11.604;2023-06-10T08:27:46;20.70;99.90
4052;DHT22;2040;50.924;11.604;2023-06-10T08:30:12;20.70;99.90
4052;DHT22;2040;50.924;11.604;2023-06-10T08:32:38;20.80;99.90
4052;DHT22;2040;50.924;11.604;2023-06-10T08:35:04;20.90;99.90
4052;DHT22;2040;50.924;11.604;2023-06-10T08:37:30;21.00;99.90
4052;DHT22;2040;50.924;11.604;2023-06-10T08:39:55;21.10;99.90
4052;DHT22;2040;50.924;11.604;2023-06-10T08:42:39;21.30;99.90
4052;DHT22;2040;50.924;11.604;2023-06-10T08:45:07;21.30;99.90
4052;DHT22;2040;50.924;11.604;2023-06-10T08:47:37;21.50;99.90
4052;DHT22;2040;50.924;11.604;2023-06-10T08:50:04;21.70;99.90
4052;DHT22;2040;50.924;11.604;2023-06-10T08:52:37;21.60;99.90
4052;DHT22;2040;50.924;11.604;2023-06-10T08:55:05;21.70;99.90
4052;DHT22;2040;50.924;11.604;2023-06-10T08:57:36;21.90;99.90
4052;DHT22;2040;50.924;11.604;2023-06-10T09:00:03;22.10;99.90
4052;DHT22;2040;50.924;11.604;2023-06-10T09:02:30;22.30;99.90
4052;DHT22;2040;50.924;11.604;2023-06-10T09:04:57;22.40;99.90
4052;DHT22;2040;50.924;11.604;2023-06-10T09:07:23;22.50;99.90
4052;DHT22;2040;50.924;11.604;2023-06-10T09:09:49;22.70;99.90
4052;DHT22;2040;50.924;11.604;2023-06-10T09:12:15;22.70;99.90
4052;DHT22;2040;50.924;11.604;2023-06-10T09:14:42;22.80;99.90
4052;DHT22;2040;50.924;11.604;2023-06-10T09:17:07;22.80;99.90
4052;DHT22;2040;50.924;11.604;2023-06-10T09:19:33;22.90;99.90
4052;DHT22;2040;50.924;11.604;2023-06-10T09:22:00;23.10;99.90
4052;DHT22;2040;50.924;11.604;2023-06-10T09:24:26;23.30;99.90
4052;DHT22;2040;50.924;11.604;2023-06-10T09:27:06;23.40;99.90
4052;DHT22;2040;50.924;11.604;2023-06-10T09:29:48;23.50;99.90
4052;DHT22;2040;50.924;11.604;2023-06-10T09:32:18;23.60;99.90
4052;DHT22;2040;50.924;11.604;2023-06-10T09:34:44;23.70;99.90
4052;DHT22;2040;50.924;11.604;2023-06-10T09:37:09;23.80;99.90
4052;DHT22;2040;50.924;11.604;2023-06-10T09:39:38;24.10;99.90
4052;DHT22;2040;50.924;11.604;2023-06-10T09:42:16;24.30;99.90
4052;DHT22;2040;50.924;11.604;2023-06-10T09:44:42;24.30;99.90
4052;DHT22;2040;50.924;11.604;2023-06-10T09:47:23;24.50;99.90
4052;DHT22;2040;50.924;11.604;2023-06-10T09:49:49;24.50;99.90
4052;DHT22;2040;50.924;11.604;2023-06-10T09:52:24;24.60;99.90
4052;DHT22;2040;50.924;11.604;2023-06-10T09:54:55;24.80;99.90
4052;DHT22;2040;50.924;11.604;2023-06-10T09:57:24;24.90;99.90
4052;DHT22;2040;50.924;11.604;2023-06-10T09:59:53;24.70;99.90
4052;DHT22;2040;50.924;11.604;2023-06-10T10:02:20;25.00;99.90
4052;DHT22;2040;50.924;11.604;2023-06-10T10:04:45;25.20;99.90
4052;DHT22;2040;50.924;11.604;2023-06-10T10:07:11;25.20;99.90
4052;DHT22;2040;50.924;11.604;2023-06-10T10:09:38;25.40;99.90
4052;DHT22;2040;50.924;11.604;2023-06-10T10:12:15;25.50;99.90
4052;DHT22;2040;50.924;11.604;2023-06-10T10:14:46;25.70;99.90
4052;DHT22;2040;50.924;11.604;2023-06-10T10:17:18;25.60;99.90
4052;DHT22;2040;50.924;11.604;2023-06-10T10:19:53;25.70;99.90
4052;DHT22;2040;50.924;11.604;2023-06-10T10:25:24;26.10;99.90
4052;DHT22;2040;50.924;11.604;2023-06-10T10:28:48;26.30;99.90
4052;DHT22;2040;50.924;11.604;2023-06-10T10:31:16;26.50;99.90
4052;DHT22;2040;50.924;11.604;2023-06-10T10:33:55;26.40;99.90
4052;DHT22;2040;50.924;11.604;2023-06-10T10:36:46;26.30;99.90
4052;DHT22;2040;50.924;11.604;2023-06-10T10:39:13;26.70;99.90
4052;DHT22;2040;50.924;11.604;2023-06-10T10:41:57;26.60;99.90
4052;DHT22;2040;50.924;11.604;2023-06-10T10:44:44;26.60;99.90
4052;DHT22;2040;50.924;11.604;2023-06-10T10:50:17;26.70;99.90
4052;DHT22;2040;50.924;11.604;2023-06-10T10:52:53;26.70;99.90
4052;DHT22;2040;50.924;11.604;2023-06-10T10:55:20;26.80;99.90
4052;DHT22;2040;50.924;11.604;2023-06-10T10:57:57;26.50;99.90
4052;DHT22;2040;50.924;11.604;2023-06-10T11:00:34;26.70;99.90
4052;DHT22;2040;50.924;11.604;2023-06-10T11:05:39;26.70;99.90
4052;DHT22;2040;50.924;11.604;2023-06-10T11:08:05;26.60;99.90
4052;DHT22;2040;50.924;11.604;2023-06-10T11:10:36;26.60;99.90
4052;DHT22;2040;50.924;11.604;2023-06-10T11:13:10;26.80;99.90
4052;DHT22;2040;50.924;11.604;2023-06-10T11:15:49;27.00;99.90
4052;DHT22;2040;50.924;11.604;2023-06-10T11:18:22;27.00;99.90
4052;DHT22;2040;50.924;11.604;2023-06-10T11:26:20;27.40;99.90
4052;DHT22;2040;50.924;11.604;2023-06-10T11:31:25;27.20;99.90
4052;DHT22;2040;50.924;11.604;2023-06-10T11:33:57;27.40;99.90
4052;DHT22;2040;50.924;11.604;2023-06-10T11:36:23;27.50;99.90
4052;DHT22;2040;50.924;11.604;2023-06-10T11:39:00;27.60;99.90
4052;DHT22;2040;50.924;11.604;2023-06-10T11:41:27;27.80;99.90
4052;DHT22;2040;50.924;11.604;2023-06-10T11:43:59;28.10;99.90
4052;DHT22;2040;50.924;11.604;2023-06-10T11:46:26;27.90;99.90
4052;DHT22;2040;50.924;11.604;2023-06-10T11:48:56;27.40;99.90
4052;DHT22;2040;50.924;11.604;2023-06-10T11:51:24;27.30;99.90
4052;DHT22;2040;50.924;11.604;2023-06-10T11:53:50;27.30;99.90
4052;DHT22;2040;50.924;11.604;2023-06-10T11:56:23;26.60;99.90
4052;DHT22;2040;50.924;11.604;2023-06-10T11:58:53;26.30;99.90
4052;DHT22;2040;50.924;11.604;2023-06-10T12:01:21;26.00;99.90
4052;DHT22;2040;50.924;11.604;2023-06-10T12:03:47;25.70;99.90
4052;DHT22;2040;50.924;11.604;2023-06-10T12:06:13;26.00;99.90
4052;DHT22;2040;50.924;11.604;2023-06-10T12:08:43;26.20;99.90
4052;DHT22;2040;50.924;11.604;2023-06-10T12:11:09;26.10;99.90
4052;DHT22;2040;50.924;11.604;2023-06-10T12:13:35;26.10;99.90
4052;DHT22;2040;50.924;11.604;2023-06-10T12:16:07;26.70;99.90
4052;DHT22;2040;50.924;11.604;2023-06-10T12:18:33;27.00;99.90
4052;DHT22;2040;50.924;11.604;2023-06-10T12:20:59;27.00;99.90
4052;DHT22;2040;50.924;11.604;2023-06-10T12:23:25;27.50;99.90
4052;DHT22;2040;50.924;11.604;2023-06-10T12:25:52;28.10;99.90
4052;DHT22;2040;50.924;11.604;2023-06-10T12:28:22;28.20;99.90
4052;DHT22;2040;50.924;11.604;2023-06-10T12:30:48;27.50;99.90
4052;DHT22;2040;50.924;11.604;2023-06-10T12:33:20;27.00;99.90
4052;DHT22;2040;50.924;11.604;2023-06-10T12:35:50;26.30;99.90
4052;DHT22;2040;50.924;11.604;2023-06-10T12:38:23;26.20;99.90
4052;DHT22;2040;50.924;11.604;2023-06-10T12:41:02;26.70;99.90
4052;DHT22;2040;50.924;11.604;2023-06-10T12:43:30;26.60;99.90
4052;DHT22;2040;50.924;11.604;2023-06-10T12:46:08;27.20;99.90
4052;DHT22;2040;50.924;11.604;2023-06-10T12:48:34;27.60;99.90
4052;DHT22;2040;50.924;11.604;2023-06-10T12:51:00;27.50;99.90
4052;DHT22;2040;50.924;11.604;2023-06-10T12:53:26;27.90;99.90
4052;DHT22;2040;50.924;11.604;2023-06-10T12:55:55;28.20;99.90
4052;DHT22;2040;50.924;11.604;2023-06-10T12:58:21;28.50;99.90
4052;DHT22;2040;50.924;11.604;2023-06-10T13:00:47;28.90;99.90
4052;DHT22;2040;50.924;11.604;2023-06-10T13:03:16;29.20;99.90
4052;DHT22;2040;50.924;11.604;2023-06-10T13:05:42;29.40;99.90
4052;DHT22;2040;50.924;11.604;2023-06-10T13:08:10;29.30;99.90
4052;DHT22;2040;50.924;11.604;2023-06-10T13:10:36;29.40;99.90
4052;DHT22;2040;50.924;11.604;2023-06-10T13:13:02;29.10;99.90
4052;DHT22;2040;50.924;11.604;2023-06-10T13:15:31;29.00;99.90
4052;DHT22;2040;50.924;11.604;2023-06-10T13:17:56;29.20;99.90
4052;DHT22;2040;50.924;11.604;2023-06-10T13:20:22;28.50;99.90
4052;DHT22;2040;50.924;11.604;2023-06-10T13:22:48;28.40;99.90
4052;DHT22;2040;50.924;11.604;2023-06-10T13:25:14;28.70;99.90
4052;DHT22;2040;50.924;11.604;2023-06-10T13:27:40;28.70;99.90
4052;DHT22;2040;50.924;11.604;2023-06-10T13:30:08;29.00;99.90
4052;DHT22;2040;50.924;11.604;2023-06-10T13:32:35;29.30;99.90
4052;DHT22;2040;50.924;11.604;2023-06-10T13:35:01;29.50;99.90
4052;DHT22;2040;50.924;11.604;2023-06-10T13:37:26;29.60;99.90
4052;DHT22;2040;50.924;11.604;2023-06-10T13:39:52;29.90;99.90
4052;DHT22;2040;50.924;11.604;2023-06-10T13:42:24;29.70;99.90
4052;DHT22;2040;50.924;11.604;2023-06-10T13:44:51;29.70;99.90
4052;DHT22;2040;50.924;11.604;2023-06-10T13:47:17;29.70;99.90
4052;DHT22;2040;50.924;11.604;2023-06-10T13:49:43;29.20;99.90
4052;DHT22;2040;50.924;11.604;2023-06-10T13:52:08;29.30;99.90
4052;DHT22;2040;50.924;11.604;2023-06-10T13:54:34;29.20;99.90
4052;DHT22;2040;50.924;11.604;2023-06-10T13:57:03;29.30;99.90
4052;DHT22;2040;50.924;11.604;2023-06-10T13:59:28;28.80;99.90
4052;DHT22;2040;50.924;11.604;2023-06-10T14:01:54;28.80;99.90
4052;DHT22;2040;50.924;11.604;2023-06-10T14:04:20;28.80;99.90
4052;DHT22;2040;50.924;11.604;2023-06-10T14:06:45;28.70;99.90
4052;DHT22;2040;50.924;11.604;2023-06-10T14:09:13;28.20;99.90
4052;DHT22;2040;50.924;11.604;2023-06-10T14:11:38;28.40;99.90
4052;DHT22;2040;50.924;11.604;2023-06-10T14:14:04;28.80;99.90
4052;DHT22;2040;50.924;11.604;2023-06-10T14:16:29;28.90;99.90
4052;DHT22;2040;50.924;11.604;2023-06-10T14:18:55;29.40;99.90
4052;DHT22;2040;50.924;11.604;2023-06-10T14:21:21;29.70;99.90
4052;DHT22;2040;50.924;11.604;2023-06-10T14:23:46;29.90;99.90
4052;DHT22;2040;50.924;11.604;2023-06-10T14:26:14;30.00;99.80
4052;DHT22;2040;50.924;11.604;2023-06-10T14:28:40;30.10;99.90
4052;DHT22;2040;50.924;11.604;2023-06-10T14:31:05;30.10;99.90
4052;DHT22;2040;50.924;11.604;2023-06-10T14:33:32;29.70;99.90
4052;DHT22;2040;50.924;11.604;2023-06-10T14:35:58;28.90;99.90
4052;DHT22;2040;50.924;11.604;2023-06-10T14:38:24;28.60;99.90
4052;DHT22;2040;50.924;11.604;2023-06-10T14:40:49;28.40;99.90
4052;DHT22;2040;50.924;11.604;2023-06-10T14:43:15;28.10;99.90
4052;DHT22;2040;50.924;11.604;2023-06-10T14:45:41;27.90;99.90
4052;DHT22;2040;50.924;11.604;2023-06-10T14:48:07;28.30;99.90
4052;DHT22;2040;50.924;11.604;2023-06-10T14:50:34;28.30;99.90
4052;DHT22;2040;50.924;11.604;2023-06-10T14:53:00;28.70;99.90
4052;DHT22;2040;50.924;11.604;2023-06-10T14:55:26;28.60;99.90
4052;DHT22;2040;50.924;11.604;2023-06-10T14:57:52;27.80;99.90
4052;DHT22;2040;50.924;11.604;2023-06-10T15:00:18;27.40;99.90
4052;DHT22;2040;50.924;11.604;2023-06-10T15:02:47;27.60;99.90
4052;DHT22;2040;50.924;11.604;2023-06-10T15:05:14;27.70;99.90
4052;DHT22;2040;50.924;11.604;2023-06-10T15:07:41;28.30;99.90
4052;DHT22;2040;50.924;11.604;2023-06-10T15:10:08;28.50;99.90
4052;DHT22;2040;50.924;11.604;2023-06-10T15:12:34;28.60;99.90
4052;DHT22;2040;50.924;11.604;2023-06-10T15:15:00;28.90;99.90
4052;DHT22;2040;50.924;11.604;2023-06-10T15:17:26;28.90;99.90
4052;DHT22;2040;50.924;11.604;2023-06-10T15:19:52;29.20;99.90
4052;DHT22;2040;50.924;11.604;2023-06-10T15:22:20;29.20;99.90
4052;DHT22;2040;50.924;11.604;2023-06-10T15:24:45;29.10;99.90
4052;DHT22;2040;50.924;11.604;2023-06-10T15:27:11;29.10;99.90
4052;DHT22;2040;50.924;11.604;2023-06-10T15:29:37;29.50;99.90
4052;DHT22;2040;50.924;11.604;2023-06-10T15:32:02;29.40;99.90
4052;DHT22;2040;50.924;11.604;2023-06-10T15:34:28;29.10;99.90
4052;DHT22;2040;50.924;11.604;2023-06-10T15:36:54;29.00;99.90
4052;DHT22;2040;50.924;11.604;2023-06-10T15:39:20;28.90;99.30
4052;DHT22;2040;50.924;11.604;2023-06-10T15:41:50;29.00;99.90
4052;DHT22;2040;50.924;11.604;2023-06-10T15:44:15;28.90;99.90
4052;DHT22;2040;50.924;11.604;2023-06-10T15:46:41;29.00;99.90
4052;DHT22;2040;50.924;11.604;2023-06-10T15:49:07;28.80;99.90
4052;DHT22;2040;50.924;11.604;2023-06-10T15:51:32;28.50;99.90
4052;DHT22;2040;50.924;11.604;2023-06-10T15:53:58;28.70;99.90
4052;DHT22;2040;50.924;11.604;2023-06-10T15:56:24;28.70;99.90
4052;DHT22;2040;50.924;11.604;2023-06-10T15:58:51;28.60;99.90
4052;DHT22;2040;50.924;11.604;2023-06-10T16:01:17;28.40;99.90
4052;DHT22;2040;50.924;11.604;2023-06-10T16:03:46;28.60;99.90
4052;DHT22;2040;50.924;11.604;2023-06-10T16:06:14;29.00;99.90
4052;DHT22;2040;50.924;11.604;2023-06-10T16:08:43;29.30;99.90
4052;DHT22;2040;50.924;11.604;2023-06-10T16:11:09;29.10;99.90
4052;DHT22;2040;50.924;11.604;2023-06-10T16:13:35;29.00;99.90
4052;DHT22;2040;50.924;11.604;2023-06-10T16:16:01;28.80;99.90